Accueil
METAR-TAF:

METAR-TAF

Aéroports :

Aéroport de Saragosse

Saragosse, Espagne

latitude: 41-40N, longitude: 001-01W, altitude: 263 m

Observation

Le bulletin a été fait il y a 17 minutes, à 01:30 UTC
Vent 6 kt de est
Température 12°C
Humidité 76%
Pression 1025 hPa
Visibilité 10 km ou plus
Nuages fragmentés à une hauteur de 4500 ft

METAR: LEZG 080130Z 10006KT 9999 BKN045 12/08 Q1025

Heure: 03:47 (01:47 UTC)

Prévision

Le bulletin a été fait il y a 2 heures et 47 minutes, à 23:00 UTC
Prévision valable du 08 à 00 UTC au 08 à 24 UTC
Vent 6 kt de est/sud-est
Visibilité 10 km ou plus
Nuages fragmentés à une hauteur de 4000 ft
Probabilité 30% :
Temporairement
du 08 à 06 UTC au 08 à 12 UTC
Visibilité: 3000 m
Quelques nuages à une hauteur de 3000 ft, Cumulus congestus.
averses de pluie

TAF: LEZG 072300Z 0800/0824 11006KT 9999 BKN040 TX21/0812Z TN10/0806Z PROB30 TEMPO 0806/0812 3000 SHRA FEW030TCU

Observations et prévisions météorologiques de plus de 4000 aéroports (messages METAR et TAF).

Les stations disponibles sont représentées par des disques jaunes et rouges sur la carte.

Passer la souris dessus pour voir le nom de la station.

Cliquer dessus pour voir les observations et prévisions météorologiques.

Pour changer de carte: cliquez sur les boutons verts avec une croix noire pour zoomer, sur le bouton vert avec un tiret pour effectuer un zoom arrière, ou sur les flèches vertes pour les cartes adjacentes.


METAR-TAF: